Phoenix — WDI5796 — position and weather

sailwx.info

Track history (hours):
 
Tides and Currents Weather Stations Pressure Air Temp Water Temp Dewpoint Dewpoint Depression Visibility Wind Speed Wind Dir Waves Ship Positions

Phoenix

Owner: White, Robert k, Olalla, WA. More information available from US FCC via Universal Licensing System and Coast Guard Vessel Documentation Center.

Last reported at 2018-Aug-13 22:14 UTC. Time now 2018-Aug-14 07:04 UTC.
Position N 47°41' W 122°24'.

Length 16 m.

Type: Pleasure craft. MMSI: 367712190.

Date/timePositionNaut miles runAvg speedWind from/ knotsBaromVisibWave heightAir tempDewpointWater temp
2018-Aug-13 22:14N 47°41' W 122°24'0 0.0
2018-Aug-13 19:45N 47°41' W 122°24'0 0.0
2018-Aug-13 19:29N 47°41' W 122°24'0 0.7
2018-Aug-13 19:00N 47°41' W 122°24'3 6.2
2018-Aug-13 18:27N 47°38' W 122°27'4 9.1
2018-Aug-13 18:00N 47°34' W 122°28'5 9.3
2018-Aug-13 17:30N 47°30' W 122°30'7 9.6
2018-Aug-13 16:46N 47°23' W 122°32'4 0.1
2018-Aug-11 16:59N 47°19' W 122°33'8 0.3
2018-Aug-10 17:18N 47°22' W 122°24'2 6.9
2018-Aug-10 16:59N 47°24' W 122°23'4 8.5
2018-Aug-10 16:30N 47°28' W 122°25'4 7.9
2018-Aug-10 16:00N 47°32' W 122°27'1 0.1
2018-Aug-09 22:54N 47°33' W 122°29'0 0.0
2018-Aug-09 22:30N 47°33' W 122°29'0 0.0
2018-Aug-09 21:56N 47°33' W 122°29'1 2.0
2018-Aug-09 21:30N 47°32' W 122°29'5 8.3
2018-Aug-09 20:57N 47°27' W 122°31'4 8.8
2018-Aug-09 20:29N 47°23' W 122°32'  
2018-Aug-06 19:04N 47°20' W 122°33'1 8.4
2018-Aug-06 18:56N 47°21' W 122°33'7 8.1
2018-Aug-06 18:03N 47°28' W 122°31'0 8.2
2018-Aug-06 18:00N 47°29' W 122°30'4 7.5
2018-Aug-06 17:29N 47°32' W 122°28'1 0.0
2018-Aug-05 19:02N 47°33' W 122°29'0 0.0
2018-Aug-05 18:59N 47°33' W 122°29'0 0.0
2018-Aug-05 18:29N 47°33' W 122°29'0 0.0
2018-Aug-05 17:59N 47°33' W 122°29'0 0.6
2018-Aug-05 17:30N 47°33' W 122°29'5 7.8
2018-Aug-05 16:53N 47°38' W 122°28'3 8.9
2018-Aug-05 16:30N 47°41' W 122°28'4 9.1
2018-Aug-05 16:00N 47°45' W 122°27'5 0.3
2018-Aug-04 23:40N 47°50' W 122°23'41 7.1
2018-Aug-04 17:56N 48°30' W 122°33'2 0.1
2018-Aug-03 23:12N 48°31' W 122°36'0 0.0
2018-Aug-03 23:00N 48°31' W 122°36'0 0.0
2018-Aug-03 22:30N 48°31' W 122°36'  
Track history (hours):
 
Tides and Currents Weather Stations Pressure Air Temp Water Temp Dewpoint Dewpoint Depression Visibility Wind Speed Wind Dir Waves Ship Positions

Phoenix

Owner: White, Robert k, Olalla, WA. More information available from US FCC via Universal Licensing System and Coast Guard Vessel Documentation Center.

Last reported at 2018-Aug-13 22:14 UTC. Time now 2018-Aug-14 07:04 UTC.
Position N 47°41' W 122°24'.

Length 16 m.

Type: Pleasure craft. MMSI: 367712190.

Date/timePositionNaut miles runAvg speedWind from/ knotsBaromVisibWave heightAir tempDewpointWater temp
2018-Aug-13 22:14N 47°41' W 122°24'0 0.0
2018-Aug-13 19:45N 47°41' W 122°24'0 0.0
2018-Aug-13 19:29N 47°41' W 122°24'0 0.7
2018-Aug-13 19:00N 47°41' W 122°24'3 6.2
2018-Aug-13 18:27N 47°38' W 122°27'4 9.1
2018-Aug-13 18:00N 47°34' W 122°28'5 9.3
2018-Aug-13 17:30N 47°30' W 122°30'7 9.6
2018-Aug-13 16:46N 47°23' W 122°32'4 0.1
2018-Aug-11 16:59N 47°19' W 122°33'8 0.3
2018-Aug-10 17:18N 47°22' W 122°24'2 6.9
2018-Aug-10 16:59N 47°24' W 122°23'4 8.5
2018-Aug-10 16:30N 47°28' W 122°25'4 7.9
2018-Aug-10 16:00N 47°32' W 122°27'1 0.1
2018-Aug-09 22:54N 47°33' W 122°29'0 0.0
2018-Aug-09 22:30N 47°33' W 122°29'0 0.0
2018-Aug-09 21:56N 47°33' W 122°29'1 2.0
2018-Aug-09 21:30N 47°32' W 122°29'5 8.3
2018-Aug-09 20:57N 47°27' W 122°31'4 8.8
2018-Aug-09 20:29N 47°23' W 122°32'  
2018-Aug-06 19:04N 47°20' W 122°33'1 8.4
2018-Aug-06 18:56N 47°21' W 122°33'7 8.1
2018-Aug-06 18:03N 47°28' W 122°31'0 8.2
2018-Aug-06 18:00N 47°29' W 122°30'4 7.5
2018-Aug-06 17:29N 47°32' W 122°28'1 0.0
2018-Aug-05 19:02N 47°33' W 122°29'0 0.0
2018-Aug-05 18:59N 47°33' W 122°29'0 0.0
2018-Aug-05 18:29N 47°33' W 122°29'0 0.0
2018-Aug-05 17:59N 47°33' W 122°29'0 0.6
2018-Aug-05 17:30N 47°33' W 122°29'5 7.8
2018-Aug-05 16:53N 47°38' W 122°28'3 8.9
2018-Aug-05 16:30N 47°41' W 122°28'4 9.1
2018-Aug-05 16:00N 47°45' W 122°27'5 0.3
2018-Aug-04 23:40N 47°50' W 122°23'41 7.1
2018-Aug-04 17:56N 48°30' W 122°33'2 0.1
2018-Aug-03 23:12N 48°31' W 122°36'0 0.0
2018-Aug-03 23:00N 48°31' W 122°36'0 0.0
2018-Aug-03 22:30N 48°31' W 122°36'  

Dump ship's entire track history